sensor_id;sensor_type;location;lat;lon;timestamp;pressure;altitude;pressure_sealevel;temperature;humidity
8637;BME280;4356;49.068;8.658;2023-04-02T00:02:48;99115.31;;;17.56;43.21
8637;BME280;4356;49.068;8.658;2023-04-02T00:07:41;99117.13;;;17.50;43.14
8637;BME280;4356;49.068;8.658;2023-04-02T00:10:31;99116.03;;;17.51;43.04
8637;BME280;4356;49.068;8.658;2023-04-02T00:15:29;99119.25;;;17.48;43.15
8637;BME280;4356;49.068;8.658;2023-04-02T00:17:56;99123.22;;;17.45;43.02
8637;BME280;4356;49.068;8.658;2023-04-02T00:20:23;99115.06;;;17.45;43.09
8637;BME280;4356;49.068;8.658;2023-04-02T00:22:49;99125.47;;;17.48;43.22
8637;BME280;4356;49.068;8.658;2023-04-02T00:25:15;99131.75;;;17.49;43.35
8637;BME280;4356;49.068;8.658;2023-04-02T00:27:41;99132.56;;;17.50;43.42
8637;BME280;4356;49.068;8.658;2023-04-02T00:30:11;99128.44;;;17.47;43.30
8637;BME280;4356;49.068;8.658;2023-04-02T00:32:37;99127.97;;;17.50;43.32
8637;BME280;4356;49.068;8.658;2023-04-02T00:35:11;99133.00;;;17.46;43.01
8637;BME280;4356;49.068;8.658;2023-04-02T00:37:38;99130.09;;;17.48;43.12
8637;BME280;4356;49.068;8.658;2023-04-02T00:40:29;99136.13;;;17.50;42.87
8637;BME280;4356;49.068;8.658;2023-04-02T00:42:58;99136.13;;;17.50;43.05
8637;BME280;4356;49.068;8.658;2023-04-02T00:45:28;99138.25;;;17.48;43.23
8637;BME280;4356;49.068;8.658;2023-04-02T00:47:57;99148.88;;;17.50;43.18
8637;BME280;4356;49.068;8.658;2023-04-02T00:50:33;99140.34;;;17.46;43.13
8637;BME280;4356;49.068;8.658;2023-04-02T00:53:08;99143.06;;;17.46;43.20
8637;BME280;4356;49.068;8.658;2023-04-02T00:55:40;99137.41;;;17.48;43.28
8637;BME280;4356;49.068;8.658;2023-04-02T00:58:24;99141.78;;;17.48;43.09
8637;BME280;4356;49.068;8.658;2023-04-02T01:00:51;99140.97;;;17.48;43.00
8637;BME280;4356;49.068;8.658;2023-04-02T01:13:46;99138.31;;;17.41;43.25
8637;BME280;4356;49.068;8.658;2023-04-02T01:19:10;99145.41;;;17.42;43.36
8637;BME280;4356;49.068;8.658;2023-04-02T01:22:04;99151.44;;;17.44;43.33
8637;BME280;4356;49.068;8.658;2023-04-02T01:24:33;99153.31;;;17.44;43.22
8637;BME280;4356;49.068;8.658;2023-04-02T01:27:05;99157.91;;;17.43;43.29
8637;BME280;4356;49.068;8.658;2023-04-02T01:29:36;99160.63;;;17.43;43.13
8637;BME280;4356;49.068;8.658;2023-04-02T01:32:10;99155.44;;;17.42;43.31
8637;BME280;4356;49.068;8.658;2023-04-02T01:34:37;99160.63;;;17.43;43.18
8637;BME280;4356;49.068;8.658;2023-04-02T01:39:55;99159.78;;;17.43;42.92
8637;BME280;4356;49.068;8.658;2023-04-02T01:45:16;99171.50;;;17.43;42.92
8637;BME280;4356;49.068;8.658;2023-04-02T01:47:44;99167.38;;;17.41;42.88
8637;BME280;4356;49.068;8.658;2023-04-02T01:52:47;99173.00;;;17.39;43.22
8637;BME280;4356;49.068;8.658;2023-04-02T01:55:19;99178.69;;;17.38;42.84
8637;BME280;4356;49.068;8.658;2023-04-02T01:57:50;99170.16;;;17.34;43.34
8637;BME280;4356;49.068;8.658;2023-04-02T02:00:18;99174.94;;;17.39;42.94
8637;BME280;4356;49.068;8.658;2023-04-02T02:02:48;99172.22;;;17.39;42.79
8637;BME280;4356;49.068;8.658;2023-04-02T02:05:16;99178.69;;;17.38;42.83
8637;BME280;4356;49.068;8.658;2023-04-02T02:07:43;99171.97;;;17.40;43.10
8637;BME280;4356;49.068;8.658;2023-04-02T02:10:14;99179.28;;;17.40;43.23
8637;BME280;4356;49.068;8.658;2023-04-02T02:12:43;99175.97;;;17.38;43.20
8637;BME280;4356;49.068;8.658;2023-04-02T02:15:20;99188.28;;;17.40;43.02
8637;BME280;4356;49.068;8.658;2023-04-02T02:17:47;99176.19;;;17.36;43.17
8637;BME280;4356;49.068;8.658;2023-04-02T02:20:13;99183.50;;;17.36;42.99
8637;BME280;4356;49.068;8.658;2023-04-02T02:22:42;99188.72;;;17.37;43.19
8637;BME280;4356;49.068;8.658;2023-04-02T02:25:31;99185.19;;;17.37;43.26
8637;BME280;4356;49.068;8.658;2023-04-02T02:28:17;99194.16;;;17.37;42.88
8637;BME280;4356;49.068;8.658;2023-04-02T02:33:38;99193.34;;;17.37;43.22
8637;BME280;4356;49.068;8.658;2023-04-02T02:36:13;99199.81;;;17.36;42.90
8637;BME280;4356;49.068;8.658;2023-04-02T02:38:46;99206.09;;;17.36;43.09
8637;BME280;4356;49.068;8.658;2023-04-02T02:43:56;99214.22;;;17.36;42.91
8637;BME280;4356;49.068;8.658;2023-04-02T02:46:26;99209.72;;;17.30;42.94
8637;BME280;4356;49.068;8.658;2023-04-02T02:48:54;99209.28;;;17.33;42.82
8637;BME280;4356;49.068;8.658;2023-04-02T02:51:27;99214.91;;;17.32;43.17
8637;BME280;4356;49.068;8.658;2023-04-02T02:54:00;99213.88;;;17.33;42.81
8637;BME280;4356;49.068;8.658;2023-04-02T02:56:28;99221.78;;;17.34;43.32
8637;BME280;4356;49.068;8.658;2023-04-02T02:58:55;99226.16;;;17.35;42.96
8637;BME280;4356;49.068;8.658;2023-04-02T03:01:21;99222.25;;;17.31;43.00
8637;BME280;4356;49.068;8.658;2023-04-02T03:03:48;99228.47;;;17.32;43.06
8637;BME280;4356;49.068;8.658;2023-04-02T03:06:17;99225.63;;;17.27;43.32
8637;BME280;4356;49.068;8.658;2023-04-02T03:09:32;99235.00;;;17.31;43.14
8637;BME280;4356;49.068;8.658;2023-04-02T03:12:29;99238.78;;;17.30;43.03
8637;BME280;4356;49.068;8.658;2023-04-02T03:15:07;99238.16;;;17.28;43.11
8637;BME280;4356;49.068;8.658;2023-04-02T03:17:47;99245.47;;;17.27;43.17
8637;BME280;4356;49.068;8.658;2023-04-02T03:20:20;99245.84;;;17.31;43.43
8637;BME280;4356;49.068;8.658;2023-04-02T03:23:07;99246.31;;;17.28;43.38
8637;BME280;4356;49.068;8.658;2023-04-02T03:25:41;99250.44;;;17.30;43.22
8637;BME280;4356;49.068;8.658;2023-04-02T03:28:17;99257.78;;;17.30;43.24
8637;BME280;4356;49.068;8.658;2023-04-02T03:30:48;99258.81;;;17.29;43.17
8637;BME280;4356;49.068;8.658;2023-04-02T03:36:31;99277.00;;;17.28;43.20
8637;BME280;4356;49.068;8.658;2023-04-02T03:39:17;99270.53;;;17.29;43.42
8637;BME280;4356;49.068;8.658;2023-04-02T03:41:51;99267.44;;;17.26;43.21
8637;BME280;4356;49.068;8.658;2023-04-02T03:44:33;99274.06;;;17.30;43.07
8637;BME280;4356;49.068;8.658;2023-04-02T03:47:08;99282.22;;;17.30;43.38
8637;BME280;4356;49.068;8.658;2023-04-02T03:49:45;99275.13;;;17.29;43.02
8637;BME280;4356;49.068;8.658;2023-04-02T03:52:33;99277.84;;;17.29;43.30
8637;BME280;4356;49.068;8.658;2023-04-02T03:55:01;99278.66;;;17.29;43.10
8637;BME280;4356;49.068;8.658;2023-04-02T04:03:36;99285.97;;;17.29;43.29
8637;BME280;4356;49.068;8.658;2023-04-02T04:06:22;99287.84;;;17.28;43.40
8637;BME280;4356;49.068;8.658;2023-04-02T04:11:31;99281.25;;;17.24;43.24
8637;BME280;4356;49.068;8.658;2023-04-02T04:16:58;99294.59;;;17.26;43.00
8637;BME280;4356;49.068;8.658;2023-04-02T04:19:48;99298.16;;;17.26;43.37
8637;BME280;4356;49.068;8.658;2023-04-02T04:22:17;99304.63;;;17.25;43.24
8637;BME280;4356;49.068;8.658;2023-04-02T04:24:44;99299.06;;;17.20;43.15
8637;BME280;4356;49.068;8.658;2023-04-02T04:27:17;99312.75;;;17.25;43.28
8637;BME280;4356;49.068;8.658;2023-04-02T04:32:17;99317.34;;;17.25;43.34
8637;BME280;4356;49.068;8.658;2023-04-02T04:34:55;99322.19;;;17.23;43.30
8637;BME280;4356;49.068;8.658;2023-04-02T04:37:29;99323.84;;;17.24;43.42
8637;BME280;4356;49.068;8.658;2023-04-02T04:40:02;99320.53;;;17.22;43.60
8637;BME280;4356;49.068;8.658;2023-04-02T04:42:34;99328.91;;;17.20;43.00
8637;BME280;4356;49.068;8.658;2023-04-02T04:48:06;99336.81;;;17.22;43.27
8637;BME280;4356;49.068;8.658;2023-04-02T04:50:45;99338.94;;;17.20;43.41
8637;BME280;4356;49.068;8.658;2023-04-02T04:53:16;99341.66;;;17.20;43.19
8637;BME280;4356;49.068;8.658;2023-04-02T04:55:46;99351.69;;;17.19;43.35
8637;BME280;4356;49.068;8.658;2023-04-02T04:58:34;99343.34;;;17.21;43.54
8637;BME280;4356;49.068;8.658;2023-04-02T05:01:44;99354.19;;;17.21;43.37
8637;BME280;4356;49.068;8.658;2023-04-02T05:04:20;99357.34;;;17.18;43.26
8637;BME280;4356;49.068;8.658;2023-04-02T05:07:00;99367.75;;;17.21;43.36
8637;BME280;4356;49.068;8.658;2023-04-02T05:09:42;99374.00;;;17.21;43.25
8637;BME280;4356;49.068;8.658;2023-04-02T05:14:56;99376.94;;;17.20;43.43
8637;BME280;4356;49.068;8.658;2023-04-02T05:17:28;99369.28;;;17.17;43.54
8637;BME280;4356;49.068;8.658;2023-04-02T05:20:04;99381.53;;;17.19;43.70
8637;BME280;4356;49.068;8.658;2023-04-02T05:22:41;99362.72;;;17.06;43.29
8637;BME280;4356;49.068;8.658;2023-04-02T05:25:29;99379.28;;;17.16;43.59
8637;BME280;4356;49.068;8.658;2023-04-02T05:28:02;99390.53;;;17.20;43.18
8637;BME280;4356;49.068;8.658;2023-04-02T05:30:37;99394.91;;;17.21;43.29
8637;BME280;4356;49.068;8.658;2023-04-02T05:33:16;99395.97;;;17.20;43.23
8637;BME280;4356;49.068;8.658;2023-04-02T05:35:46;99389.31;;;17.16;43.47
8637;BME280;4356;49.068;8.658;2023-04-02T05:38:23;99393.72;;;17.17;43.33
8637;BME280;4356;49.068;8.658;2023-04-02T05:40:59;99404.94;;;17.20;43.44
8637;BME280;4356;49.068;8.658;2023-04-02T05:43:29;99403.88;;;17.21;43.49
8637;BME280;4356;49.068;8.658;2023-04-02T05:46:00;99408.50;;;17.21;43.37
8637;BME280;4356;49.068;8.658;2023-04-02T05:48:31;99413.31;;;17.19;43.51
8637;BME280;4356;49.068;8.658;2023-04-02T05:50:59;99412.25;;;17.20;43.43
8637;BME280;4356;49.068;8.658;2023-04-02T05:53:31;99421.00;;;17.22;43.38
8637;BME280;4356;49.068;8.658;2023-04-02T05:56:15;99417.53;;;17.15;43.49
8637;BME280;4356;49.068;8.658;2023-04-02T06:01:35;99430.00;;;17.22;42.93
8637;BME280;4356;49.068;8.658;2023-04-02T06:06:55;99430.66;;;17.18;43.23
8637;BME280;4356;49.068;8.658;2023-04-02T06:12:25;99444.84;;;17.20;43.25
8637;BME280;4356;49.068;8.658;2023-04-02T06:14:53;99448.38;;;17.20;43.42
8637;BME280;4356;49.068;8.658;2023-04-02T06:17:19;99453.22;;;17.18;43.54
8637;BME280;4356;49.068;8.658;2023-04-02T06:19:46;99446.94;;;17.18;43.15
8637;BME280;4356;49.068;8.658;2023-04-02T06:22:36;99457.38;;;17.21;43.15
8637;BME280;4356;49.068;8.658;2023-04-02T06:28:26;99470.13;;;17.20;43.56
8637;BME280;4356;49.068;8.658;2023-04-02T06:30:57;99470.56;;;17.17;43.51
8637;BME280;4356;49.068;8.658;2023-04-02T06:33:25;99481.44;;;17.17;43.50
8637;BME280;4356;49.068;8.658;2023-04-02T06:35:51;99470.16;;;17.14;43.38
8637;BME280;4356;49.068;8.658;2023-04-02T06:38:23;99483.06;;;17.18;43.54
8637;BME280;4356;49.068;8.658;2023-04-02T06:40:53;99479.28;;;17.19;43.23
8637;BME280;4356;49.068;8.658;2023-04-02T06:43:34;99483.47;;;17.22;43.39
8637;BME280;4356;49.068;8.658;2023-04-02T06:46:15;99493.47;;;17.21;43.57
8637;BME280;4356;49.068;8.658;2023-04-02T06:48:43;99494.56;;;17.20;43.65
8637;BME280;4356;49.068;8.658;2023-04-02T06:51:13;99494.78;;;17.19;43.44
8637;BME280;4356;49.068;8.658;2023-04-02T06:53:44;99490.63;;;17.16;43.55
8637;BME280;4356;49.068;8.658;2023-04-02T06:59:01;99502.31;;;17.17;43.74
8637;BME280;4356;49.068;8.658;2023-04-02T07:01:31;99516.03;;;17.22;43.88
8637;BME280;4356;49.068;8.658;2023-04-02T07:03:58;99515.22;;;17.21;43.71
8637;BME280;4356;49.068;8.658;2023-04-02T07:06:24;99516.50;;;17.19;43.61
8637;BME280;4356;49.068;8.658;2023-04-02T07:08:50;99518.16;;;17.20;43.61
8637;BME280;4356;49.068;8.658;2023-04-02T07:11:18;99526.44;;;17.25;43.55
8637;BME280;4356;49.068;8.658;2023-04-02T07:13:45;99530.84;;;17.26;43.29
8637;BME280;4356;49.068;8.658;2023-04-02T07:16:25;99514.44;;;17.14;43.32
8637;BME280;4356;49.068;8.658;2023-04-02T07:18:52;99517.75;;;17.16;43.77
8637;BME280;4356;49.068;8.658;2023-04-02T07:21:20;99540.88;;;17.25;43.57
8637;BME280;4356;49.068;8.658;2023-04-02T07:23:46;99537.53;;;17.23;43.24
8637;BME280;4356;49.068;8.658;2023-04-02T07:26:14;99544.81;;;17.29;43.34
8637;BME280;4356;49.068;8.658;2023-04-02T07:28:41;99555.69;;;17.29;43.24
8637;BME280;4356;49.068;8.658;2023-04-02T07:31:18;99553.81;;;17.30;43.31
8637;BME280;4356;49.068;8.658;2023-04-02T07:33:45;99552.13;;;17.29;43.41
8637;BME280;4356;49.068;8.658;2023-04-02T07:36:16;99552.41;;;17.21;43.61
8637;BME280;4356;49.068;8.658;2023-04-02T07:38:42;99548.25;;;17.18;43.88
8637;BME280;4356;49.068;8.658;2023-04-02T07:41:08;99565.69;;;17.29;43.21
8637;BME280;4356;49.068;8.658;2023-04-02T07:43:34;99554.50;;;17.19;43.66
8637;BME280;4356;49.068;8.658;2023-04-02T07:46:00;99554.50;;;17.19;43.19
8637;BME280;4356;49.068;8.658;2023-04-02T07:48:26;99572.81;;;17.30;43.13
8637;BME280;4356;49.068;8.658;2023-04-02T07:50:52;99559.50;;;17.22;43.55
8637;BME280;4356;49.068;8.658;2023-04-02T07:53:27;99578.25;;;17.30;43.30
8637;BME280;4356;49.068;8.658;2023-04-02T07:55:55;99574.94;;;17.21;43.15
8637;BME280;4356;49.068;8.658;2023-04-02T07:58:21;99583.44;;;17.31;43.21
8637;BME280;4356;49.068;8.658;2023-04-02T08:00:46;99592.41;;;17.32;43.36
8637;BME280;4356;49.068;8.658;2023-04-02T08:03:12;99595.34;;;17.30;43.39
8637;BME280;4356;49.068;8.658;2023-04-02T08:05:38;99588.53;;;17.21;43.39
8637;BME280;4356;49.068;8.658;2023-04-02T08:08:04;99603.50;;;17.30;43.38
8637;BME280;4356;49.068;8.658;2023-04-02T08:10:30;99599.16;;;17.23;43.14
8637;BME280;4356;49.068;8.658;2023-04-02T08:12:56;99601.22;;;17.27;43.39
8637;BME280;4356;49.068;8.658;2023-04-02T08:15:21;99599.78;;;17.25;43.45
8637;BME280;4356;49.068;8.658;2023-04-02T08:17:47;99612.03;;;17.34;43.17
8637;BME280;4356;49.068;8.658;2023-04-02T08:20:17;99611.47;;;17.25;43.17
8637;BME280;4356;49.068;8.658;2023-04-02T08:22:45;99627.28;;;17.35;43.31
8637;BME280;4356;49.068;8.658;2023-04-02T08:25:11;99617.75;;;17.26;43.42
8637;BME280;4356;49.068;8.658;2023-04-02T08:27:36;99635.06;;;17.31;43.09
8637;BME280;4356;49.068;8.658;2023-04-02T08:30:03;99642.75;;;17.34;43.15
8637;BME280;4356;49.068;8.658;2023-04-02T08:32:29;99626.13;;;17.24;43.19
8637;BME280;4356;49.068;8.658;2023-04-02T08:34:55;99640.25;;;17.33;43.23
8637;BME280;4356;49.068;8.658;2023-04-02T08:37:21;99631.94;;;17.28;43.06
8637;BME280;4356;49.068;8.658;2023-04-02T08:39:47;99656.09;;;17.36;43.18
8637;BME280;4356;49.068;8.658;2023-04-02T08:42:43;99655.88;;;17.37;43.22
8637;BME280;4356;49.068;8.658;2023-04-02T08:47:58;99659.88;;;17.35;43.08
8637;BME280;4356;49.068;8.658;2023-04-02T08:50:32;99656.31;;;17.34;43.22
8637;BME280;4356;49.068;8.658;2023-04-02T08:53:01;99668.88;;;17.35;43.11
8637;BME280;4356;49.068;8.658;2023-04-02T08:58:25;99684.09;;;17.36;43.39
8637;BME280;4356;49.068;8.658;2023-04-02T09:00:55;99686.59;;;17.38;43.48
8637;BME280;4356;49.068;8.658;2023-04-02T09:03:34;99683.72;;;17.33;43.37
8637;BME280;4356;49.068;8.658;2023-04-02T09:06:01;99690.16;;;17.38;43.26
8637;BME280;4356;49.068;8.658;2023-04-02T09:08:30;99694.31;;;17.41;43.59
8637;BME280;4356;49.068;8.658;2023-04-02T09:13:29;99700.78;;;17.40;43.31
8637;BME280;4356;49.068;8.658;2023-04-02T09:16:09;99702.03;;;17.44;43.56
8637;BME280;4356;49.068;8.658;2023-04-02T09:18:36;99705.59;;;17.44;43.30
8637;BME280;4356;49.068;8.658;2023-04-02T09:21:30;99703.91;;;17.43;43.77
8637;BME280;4356;49.068;8.658;2023-04-02T09:23:57;99708.06;;;17.46;43.52
8637;BME280;4356;49.068;8.658;2023-04-02T09:26:31;99717.91;;;17.47;43.46
8637;BME280;4356;49.068;8.658;2023-04-02T09:31:38;99714.97;;;17.48;43.35
8637;BME280;4356;49.068;8.658;2023-04-02T09:34:28;99727.69;;;17.55;43.50
8637;BME280;4356;49.068;8.658;2023-04-02T09:36:54;99719.53;;;17.55;43.43
8637;BME280;4356;49.068;8.658;2023-04-02T09:39:24;99717.66;;;17.55;43.31
8637;BME280;4356;49.068;8.658;2023-04-02T09:41:51;99724.75;;;17.56;43.48
8637;BME280;4356;49.068;8.658;2023-04-02T09:44:27;99729.06;;;17.64;43.25
8637;BME280;4356;49.068;8.658;2023-04-02T09:46:57;99731.56;;;17.65;42.93
8637;BME280;4356;49.068;8.658;2023-04-02T09:49:27;99729.47;;;17.67;43.03
8637;BME280;4356;49.068;8.658;2023-04-02T09:54:40;99725.50;;;17.70;42.74
8637;BME280;4356;49.068;8.658;2023-04-02T09:57:22;99734.66;;;17.75;42.89
8637;BME280;4356;49.068;8.658;2023-04-02T10:03:02;99741.91;;;17.81;42.84
8637;BME280;4356;49.068;8.658;2023-04-02T10:05:29;99740.63;;;17.84;42.61
8637;BME280;4356;49.068;8.658;2023-04-02T10:08:14;99733.75;;;17.81;42.62
8637;BME280;4356;49.068;8.658;2023-04-02T10:10:45;99741.25;;;17.86;42.80
8637;BME280;4356;49.068;8.658;2023-04-02T10:16:12;99741.19;;;17.92;42.68
8637;BME280;4356;49.068;8.658;2023-04-02T10:18:56;99758.25;;;17.99;42.79
8637;BME280;4356;49.068;8.658;2023-04-02T10:21:36;99756.63;;;17.98;42.70
8637;BME280;4356;49.068;8.658;2023-04-02T10:24:11;99767.44;;;18.05;42.61
8637;BME280;4356;49.068;8.658;2023-04-02T10:34:57;99774.63;;;18.17;42.38
8637;BME280;4356;49.068;8.658;2023-04-02T10:40:13;99776.69;;;18.22;42.24
8637;BME280;4356;49.068;8.658;2023-04-02T10:42:53;99778.81;;;18.20;42.06
8637;BME280;4356;49.068;8.658;2023-04-02T10:48:11;99775.63;;;18.23;42.23
8637;BME280;4356;49.068;8.658;2023-04-02T10:51:06;99791.91;;;18.29;42.15
8637;BME280;4356;49.068;8.658;2023-04-02T10:56:15;99801.97;;;18.29;42.09
8637;BME280;4356;49.068;8.658;2023-04-02T10:58:54;99799.84;;;18.31;41.97
8637;BME280;4356;49.068;8.658;2023-04-02T11:01:27;99805.91;;;18.33;41.90
8637;BME280;4356;49.068;8.658;2023-04-02T11:04:04;99804.84;;;18.34;41.51
8637;BME280;4356;49.068;8.658;2023-04-02T11:06:40;99807.31;;;18.35;41.62
8637;BME280;4356;49.068;8.658;2023-04-02T11:09:15;99814.22;;;18.38;41.38
8637;BME280;4356;49.068;8.658;2023-04-02T11:11:44;99813.16;;;18.39;41.77
8637;BME280;4356;49.068;8.658;2023-04-02T11:14:28;99808.78;;;18.38;41.75
8637;BME280;4356;49.068;8.658;2023-04-02T11:16:56;99817.56;;;18.40;41.72
8637;BME280;4356;49.068;8.658;2023-04-02T11:19:34;99810.66;;;18.37;41.40
8637;BME280;4356;49.068;8.658;2023-04-02T11:22:02;99813.38;;;18.37;41.64
8637;BME280;4356;49.068;8.658;2023-04-02T11:27:15;99825.06;;;18.44;41.62
8637;BME280;4356;49.068;8.658;2023-04-02T11:32:44;99832.19;;;18.45;41.85
8637;BME280;4356;49.068;8.658;2023-04-02T11:38:01;99838.06;;;18.42;42.00
8637;BME280;4356;49.068;8.658;2023-04-02T11:40:48;99851.84;;;18.48;42.18
8637;BME280;4356;49.068;8.658;2023-04-02T11:48:31;99854.78;;;18.46;41.94
8637;BME280;4356;49.068;8.658;2023-04-02T11:50:58;99859.41;;;18.45;41.91
8637;BME280;4356;49.068;8.658;2023-04-02T11:53:35;99852.88;;;18.46;42.09
8637;BME280;4356;49.068;8.658;2023-04-02T11:56:28;99854.19;;;18.44;42.25
8637;BME280;4356;49.068;8.658;2023-04-02T12:11:46;99863.53;;;18.48;42.35
8637;BME280;4356;49.068;8.658;2023-04-02T12:16:59;99864.00;;;18.45;42.38
8637;BME280;4356;49.068;8.658;2023-04-02T12:19:26;99865.69;;;18.46;42.36
8637;BME280;4356;49.068;8.658;2023-04-02T12:21:55;99875.28;;;18.48;41.91
8637;BME280;4356;49.068;8.658;2023-04-02T12:24:22;99871.50;;;18.50;42.21
8637;BME280;4356;49.068;8.658;2023-04-02T12:27:09;99875.28;;;18.48;42.14
8637;BME280;4356;49.068;8.658;2023-04-02T12:29:41;99859.00;;;18.35;42.17
8637;BME280;4356;49.068;8.658;2023-04-02T12:32:28;99879.44;;;18.51;41.93
8637;BME280;4356;49.068;8.658;2023-04-02T12:34:55;99887.22;;;18.48;41.79
8637;BME280;4356;49.068;8.658;2023-04-02T12:37:25;99888.41;;;18.52;42.11
8637;BME280;4356;49.068;8.658;2023-04-02T12:40:12;99902.63;;;18.54;42.11
8637;BME280;4356;49.068;8.658;2023-04-02T12:42:40;99901.84;;;18.53;42.12
8637;BME280;4356;49.068;8.658;2023-04-02T12:45:06;99899.31;;;18.52;41.93
8637;BME280;4356;49.068;8.658;2023-04-02T12:47:45;99900.38;;;18.51;41.80
8637;BME280;4356;49.068;8.658;2023-04-02T12:50:13;99899.53;;;18.50;41.67
8637;BME280;4356;49.068;8.658;2023-04-02T12:52:44;99908.09;;;18.54;41.62
8637;BME280;4356;49.068;8.658;2023-04-02T12:55:22;99908.09;;;18.54;41.60
8637;BME280;4356;49.068;8.658;2023-04-02T12:57:54;99906.44;;;18.53;41.85
8637;BME280;4356;49.068;8.658;2023-04-02T13:03:00;99921.88;;;18.59;41.84
8637;BME280;4356;49.068;8.658;2023-04-02T13:05:49;99927.34;;;18.59;41.83
8637;BME280;4356;49.068;8.658;2023-04-02T13:08:25;99932.78;;;18.59;41.84
8637;BME280;4356;49.068;8.658;2023-04-02T13:11:03;99927.75;;;18.56;41.98
8637;BME280;4356;49.068;8.658;2023-04-02T13:13:37;99934.88;;;18.57;42.28
8637;BME280;4356;49.068;8.658;2023-04-02T13:16:27;99939.25;;;18.58;41.98
8637;BME280;4356;49.068;8.658;2023-04-02T13:19:18;99937.16;;;18.60;42.28
8637;BME280;4356;49.068;8.658;2023-04-02T13:21:45;99938.63;;;18.56;42.31
8637;BME280;4356;49.068;8.658;2023-04-02T13:24:21;99943.44;;;18.60;42.01
8637;BME280;4356;49.068;8.658;2023-04-02T13:26:49;99949.91;;;18.59;42.23
8637;BME280;4356;49.068;8.658;2023-04-02T13:29:35;99959.75;;;18.60;42.48
8637;BME280;4356;49.068;8.658;2023-04-02T13:32:05;99957.84;;;18.61;42.33
8637;BME280;4356;49.068;8.658;2023-04-02T13:34:32;99963.53;;;18.59;42.16
8637;BME280;4356;49.068;8.658;2023-04-02T13:36:58;99964.38;;;18.60;42.08
8637;BME280;4356;49.068;8.658;2023-04-02T13:39:24;99967.31;;;18.58;42.00
8637;BME280;4356;49.068;8.658;2023-04-02T13:41:55;99967.53;;;18.57;42.34
8637;BME280;4356;49.068;8.658;2023-04-02T13:44:27;99970.03;;;18.58;41.87
8637;BME280;4356;49.068;8.658;2023-04-02T13:46:54;99973.78;;;18.57;42.12
8637;BME280;4356;49.068;8.658;2023-04-02T13:49:21;99974.63;;;18.58;41.81
8637;BME280;4356;49.068;8.658;2023-04-02T13:51:49;99971.53;;;18.54;41.64
8637;BME280;4356;49.068;8.658;2023-04-02T13:54:20;99988.25;;;18.58;41.87
8637;BME280;4356;49.068;8.658;2023-04-02T13:56:48;99987.63;;;18.56;42.11
8637;BME280;4356;49.068;8.658;2023-04-02T13:59:14;99994.75;;;18.57;42.00
8637;BME280;4356;49.068;8.658;2023-04-02T14:01:42;99997.47;;;18.57;41.69
8637;BME280;4356;49.068;8.658;2023-04-02T14:04:10;100003.16;;;18.55;41.98
8637;BME280;4356;49.068;8.658;2023-04-02T14:12:39;100014.84;;;18.56;41.72
8637;BME280;4356;49.068;8.658;2023-04-02T14:20:48;100028.91;;;18.53;41.43
8637;BME280;4356;49.068;8.658;2023-04-02T14:23:51;100031.63;;;18.53;41.38
8637;BME280;4356;49.068;8.658;2023-04-02T14:32:25;100036.66;;;18.49;41.16
8637;BME280;4356;49.068;8.658;2023-04-02T14:35:19;100047.56;;;18.49;41.28
8637;BME280;4356;49.068;8.658;2023-04-02T14:40:46;100055.09;;;18.47;41.42
8637;BME280;4356;49.068;8.658;2023-04-02T14:43:24;100063.03;;;18.48;41.09
8637;BME280;4356;49.068;8.658;2023-04-02T14:46:03;100068.94;;;18.45;41.08
8637;BME280;4356;49.068;8.658;2023-04-02T14:48:43;100070.34;;;18.48;41.18
8637;BME280;4356;49.068;8.658;2023-04-02T14:51:24;100073.31;;;18.46;41.31
8637;BME280;4356;49.068;8.658;2023-04-02T14:56:18;100079.38;;;18.48;41.11
8637;BME280;4356;49.068;8.658;2023-04-02T14:58:50;100071.03;;;18.43;41.12
8637;BME280;4356;49.068;8.658;2023-04-02T15:01:34;100086.09;;;18.46;40.92
8637;BME280;4356;49.068;8.658;2023-04-02T15:04:07;100085.25;;;18.45;40.86
8637;BME280;4356;49.068;8.658;2023-04-02T15:06:41;100082.31;;;18.40;40.67
8637;BME280;4356;49.068;8.658;2023-04-02T15:09:21;100093.66;;;18.44;41.05
8637;BME280;4356;49.068;8.658;2023-04-02T15:11:54;100098.25;;;18.43;40.76
8637;BME280;4356;49.068;8.658;2023-04-02T15:14:26;100102.63;;;18.44;40.95
8637;BME280;4356;49.068;8.658;2023-04-02T15:16:54;100095.31;;;18.38;40.77
8637;BME280;4356;49.068;8.658;2023-04-02T15:19:20;100095.09;;;18.33;40.81
8637;BME280;4356;49.068;8.658;2023-04-02T15:22:22;100087.59;;;18.29;40.81
8637;BME280;4356;49.068;8.658;2023-04-02T15:25:07;100120.00;;;18.43;40.83
8637;BME280;4356;49.068;8.658;2023-04-02T15:30:28;100128.59;;;18.40;40.90
8637;BME280;4356;49.068;8.658;2023-04-02T15:35:47;100134.44;;;18.37;40.67
8637;BME280;4356;49.068;8.658;2023-04-02T15:38:31;100145.94;;;18.39;40.67
8637;BME280;4356;49.068;8.658;2023-04-02T15:41:24;100137.81;;;18.33;40.99
8637;BME280;4356;49.068;8.658;2023-04-02T15:44:02;100151.59;;;18.38;41.00
8637;BME280;4356;49.068;8.658;2023-04-02T15:54:52;100151.19;;;18.34;40.57
8637;BME280;4356;49.068;8.658;2023-04-02T15:57:52;100153.91;;;18.34;40.48
8637;BME280;4356;49.068;8.658;2023-04-02T16:03:30;100166.91;;;18.32;40.73
8637;BME280;4356;49.068;8.658;2023-04-02T16:06:12;100161.28;;;18.27;40.49
8637;BME280;4356;49.068;8.658;2023-04-02T16:08:53;100170.88;;;18.30;40.62
8637;BME280;4356;49.068;8.658;2023-04-02T16:11:23;100173.00;;;18.28;40.81
8637;BME280;4356;49.068;8.658;2023-04-02T16:13:51;100172.56;;;18.24;40.37
8637;BME280;4356;49.068;8.658;2023-04-02T16:16:29;100178.63;;;18.26;40.60
8637;BME280;4356;49.068;8.658;2023-04-02T16:19:18;100187.41;;;18.28;40.79
8637;BME280;4356;49.068;8.658;2023-04-02T16:24:23;100197.03;;;18.24;40.75
8637;BME280;4356;49.068;8.658;2023-04-02T16:32:37;100211.72;;;18.23;40.57
8637;BME280;4356;49.068;8.658;2023-04-02T16:35:28;100219.25;;;18.21;40.23
8637;BME280;4356;49.068;8.658;2023-04-02T16:38:14;100219.47;;;18.20;40.45
8637;BME280;4356;49.068;8.658;2023-04-02T16:41:26;100226.78;;;18.19;40.38
8637;BME280;4356;49.068;8.658;2023-04-02T16:55:37;100261.09;;;18.14;40.45
8637;BME280;4356;49.068;8.658;2023-04-02T17:04:13;100275.13;;;18.11;40.44
8637;BME280;4356;49.068;8.658;2023-04-02T17:06:59;100276.59;;;18.07;40.93
8637;BME280;4356;49.068;8.658;2023-04-02T17:12:35;100291.88;;;18.08;40.48
8637;BME280;4356;49.068;8.658;2023-04-02T17:15:26;100281.63;;;18.03;40.58
8637;BME280;4356;49.068;8.658;2023-04-02T17:18:00;100290.00;;;18.02;40.67
8637;BME280;4356;49.068;8.658;2023-04-02T17:20:26;100300.03;;;18.01;40.95
8637;BME280;4356;49.068;8.658;2023-04-02T17:22:53;100312.16;;;18.05;40.46